Time;durP1;ratioP1;P1;durP2;ratioP2;P2;SDS_P1;SDS_P2;PMS_P1;PMS_P2;Temp;Humidity;BMP_temperature;BMP_pressure;BME280_temperature;BME280_humidity;BME280_pressure;Samples;Min_cycle;Max_cycle;Signal;HPM_P1;HPM_P2
2023/08/18 00:01:16;;;;;;;;;;;25.90;99.90;;;;;;5132982;27;20279;-70
2023/08/18 00:03:41;;;;;;;;;;;26.00;99.90;;;;;;5134814;27;19926;-70
2023/08/18 00:06:07;;;;;;;;;;;26.00;99.90;;;;;;5132944;27;20391;-70
2023/08/18 00:08:33;;;;;;;;;;;26.00;99.90;;;;;;5134121;27;19911;-70
2023/08/18 00:10:59;;;;;;;;;;;25.90;99.90;;;;;;5134436;27;19903;-69
2023/08/18 00:13:25;;;;;;;;;;;25.80;99.90;;;;;;5134379;27;19904;-70
2023/08/18 00:15:51;;;;;;;;;;;25.80;99.90;;;;;;5134644;27;19904;-70
2023/08/18 00:18:16;;;;;;;;;;;25.80;99.90;;;;;;5134073;27;19907;-70
2023/08/18 00:20:42;;;;;;;;;;;25.80;99.90;;;;;;5134280;27;19903;-70
2023/08/18 00:23:08;;;;;;;;;;;25.80;99.90;;;;;;5133919;28;20270;-70
2023/08/18 00:25:34;;;;;;;;;;;25.80;99.90;;;;;;5134463;27;19973;-70
2023/08/18 00:27:59;;;;;;;;;;;25.90;99.90;;;;;;5133937;27;19918;-70
2023/08/18 00:30:25;;;;;;;;;;;25.80;99.90;;;;;;5133993;28;19903;-70
2023/08/18 00:32:52;;;;;;;;;;;25.70;99.90;;;;;;5133921;27;20249;-70
2023/08/18 00:35:18;;;;;;;;;;;25.60;99.90;;;;;;5132549;28;19903;-70
2023/08/18 00:37:44;;;;;;;;;;;25.60;99.90;;;;;;5133733;28;19904;-70
2023/08/18 00:40:10;;;;;;;;;;;25.60;99.90;;;;;;5133725;27;19922;-71
2023/08/18 00:42:36;;;;;;;;;;;25.60;99.90;;;;;;5134390;27;19907;-70
2023/08/18 00:45:02;;;;;;;;;;;25.50;99.90;;;;;;5133860;27;20332;-70
2023/08/18 00:47:29;;;;;;;;;;;25.50;99.90;;;;;;5134024;27;20355;-70
2023/08/18 00:49:56;;;;;;;;;;;25.50;99.90;;;;;;5133840;27;20256;-70
2023/08/18 00:52:22;;;;;;;;;;;25.50;99.90;;;;;;5133819;28;19950;-71
2023/08/18 00:54:48;;;;;;;;;;;25.50;99.90;;;;;;5132467;28;19909;-70
2023/08/18 00:57:14;;;;;;;;;;;25.50;99.90;;;;;;5134060;27;19904;-70
2023/08/18 00:59:41;;;;;;;;;;;25.50;99.90;;;;;;5132352;28;20382;-70
2023/08/18 01:02:07;;;;;;;;;;;25.50;99.90;;;;;;5133763;27;20021;-71
2023/08/18 01:04:34;;;;;;;;;;;25.50;99.90;;;;;;5133722;27;20343;-70
2023/08/18 01:07:00;;;;;;;;;;;25.60;99.90;;;;;;5136893;27;19963;-70
2023/08/18 01:09:26;;;;;;;;;;;25.60;99.90;;;;;;5137561;27;20387;-71
2023/08/18 01:11:58;;;;;;;;;;;25.60;99.90;;;;;;5137629;27;19903;-71
2023/08/18 01:14:23;;;;;;;;;;;25.60;99.90;;;;;;5135772;27;19904;-71
2023/08/18 01:16:53;;;;;;;;;;;25.60;99.90;;;;;;5136153;27;19903;-72
2023/08/18 01:19:21;;;;;;;;;;;25.60;99.90;;;;;;5137438;27;19903;-70
2023/08/18 01:21:49;;;;;;;;;;;25.70;99.90;;;;;;5137152;27;19907;-70
2023/08/18 01:24:15;;;;;;;;;;;25.70;99.90;;;;;;5137465;27;20305;-70
2023/08/18 01:26:42;;;;;;;;;;;25.70;99.90;;;;;;5137250;27;19915;-70
2023/08/18 01:29:08;;;;;;;;;;;25.80;99.90;;;;;;5137073;27;19915;-70
2023/08/18 01:31:35;;;;;;;;;;;25.80;99.90;;;;;;5137620;27;19910;-71
2023/08/18 01:34:04;;;;;;;;;;;25.80;99.90;;;;;;5137170;27;20355;-70
2023/08/18 01:36:33;;;;;;;;;;;25.80;99.90;;;;;;5135788;27;19904;-70
2023/08/18 01:39:02;;;;;;;;;;;25.80;99.90;;;;;;5136723;27;20261;-69
2023/08/18 01:41:29;;;;;;;;;;;25.80;99.90;;;;;;5137594;27;19912;-70
2023/08/18 01:43:55;;;;;;;;;;;25.90;99.90;;;;;;5137021;27;19904;-70
2023/08/18 01:46:21;;;;;;;;;;;25.80;99.90;;;;;;5136927;27;19903;-70
2023/08/18 01:48:47;;;;;;;;;;;25.80;99.90;;;;;;5136796;27;19975;-71
2023/08/18 01:51:13;;;;;;;;;;;25.80;99.90;;;;;;5135529;27;20003;-70
2023/08/18 01:53:38;;;;;;;;;;;25.80;99.90;;;;;;5136600;27;19903;-71
2023/08/18 01:56:04;;;;;;;;;;;25.90;99.90;;;;;;5137315;27;19903;-70
2023/08/18 01:58:30;;;;;;;;;;;25.90;99.90;;;;;;5136451;27;19957;-70
2023/08/18 02:00:56;;;;;;;;;;;25.90;99.90;;;;;;5136635;27;20340;-71
2023/08/18 02:03:23;;;;;;;;;;;25.90;99.90;;;;;;5137172;27;19911;-70
2023/08/18 02:05:48;;;;;;;;;;;25.90;99.90;;;;;;5136631;27;19945;-70
2023/08/18 02:08:15;;;;;;;;;;;25.90;99.90;;;;;;5136399;27;19958;-70
2023/08/18 02:10:40;;;;;;;;;;;25.80;99.90;;;;;;5136461;27;19911;-70
2023/08/18 02:13:06;;;;;;;;;;;25.80;99.90;;;;;;5136867;27;19908;-70
2023/08/18 02:15:32;;;;;;;;;;;25.80;99.90;;;;;;5136666;27;19998;-71
2023/08/18 02:17:58;;;;;;;;;;;25.80;99.90;;;;;;5136596;27;19999;-70
2023/08/18 02:20:24;;;;;;;;;;;25.80;99.90;;;;;;5134999;27;20231;-71
2023/08/18 02:22:49;;;;;;;;;;;25.80;99.90;;;;;;5136219;27;19986;-70
2023/08/18 02:25:15;;;;;;;;;;;25.80;99.90;;;;;;5136429;27;19903;-70
2023/08/18 02:27:41;;;;;;;;;;;25.80;99.90;;;;;;5136159;27;19914;-71
2023/08/18 02:30:07;;;;;;;;;;;25.80;99.90;;;;;;5136251;27;20096;-70
2023/08/18 02:32:33;;;;;;;;;;;25.80;99.90;;;;;;5136741;27;20264;-71
2023/08/18 02:34:59;;;;;;;;;;;25.80;99.90;;;;;;5136017;27;19903;-71
2023/08/18 02:37:24;;;;;;;;;;;25.70;99.90;;;;;;5136143;27;19956;-70
2023/08/18 02:39:50;;;;;;;;;;;25.70;99.90;;;;;;5135737;27;19915;-71
2023/08/18 02:42:16;;;;;;;;;;;25.60;99.90;;;;;;5136381;27;19907;-70
2023/08/18 02:44:42;;;;;;;;;;;25.50;99.90;;;;;;5135798;27;19926;-70
2023/08/18 02:47:09;;;;;;;;;;;25.40;99.90;;;;;;5135978;27;19904;-70
2023/08/18 02:49:35;;;;;;;;;;;25.30;99.90;;;;;;5135649;27;20282;-71
2023/08/18 02:52:01;;;;;;;;;;;25.20;99.90;;;;;;5135451;27;19903;-70
2023/08/18 02:54:27;;;;;;;;;;;25.20;99.90;;;;;;5134221;27;20351;-69
2023/08/18 02:56:53;;;;;;;;;;;25.30;99.90;;;;;;5135337;27;19903;-70
2023/08/18 02:59:19;;;;;;;;;;;25.20;99.90;;;;;;5135429;27;20343;-70
2023/08/18 03:01:45;;;;;;;;;;;25.10;99.90;;;;;;5135489;27;19907;-70
2023/08/18 03:04:14;;;;;;;;;;;25.20;99.90;;;;;;5135336;27;19955;-70
2023/08/18 03:06:41;;;;;;;;;;;25.20;99.90;;;;;;5135589;27;20259;-70
2023/08/18 03:09:07;;;;;;;;;;;25.20;99.90;;;;;;5135043;27;20462;-70
2023/08/18 03:11:33;;;;;;;;;;;25.20;99.90;;;;;;5135480;27;20370;-70
2023/08/18 03:13:59;;;;;;;;;;;25.20;99.90;;;;;;5133812;27;19903;-70
2023/08/18 03:16:25;;;;;;;;;;;25.20;99.90;;;;;;5135673;27;19908;-70
2023/08/18 03:18:50;;;;;;;;;;;25.30;99.90;;;;;;5135166;27;20316;-71
2023/08/18 03:21:16;;;;;;;;;;;25.20;99.90;;;;;;5133693;27;19965;-70
2023/08/18 03:23:42;;;;;;;;;;;25.30;99.90;;;;;;5134837;27;19914;-70
2023/08/18 03:26:08;;;;;;;;;;;25.30;99.90;;;;;;5134934;27;19903;-69
2023/08/18 03:28:38;;;;;;;;;;;25.30;99.90;;;;;;5134235;27;19911;-69
2023/08/18 03:31:05;;;;;;;;;;;25.30;99.90;;;;;;5133751;27;20321;-70
2023/08/18 03:33:31;;;;;;;;;;;25.20;99.90;;;;;;5135117;27;19903;-70
2023/08/18 03:35:57;;;;;;;;;;;25.30;99.90;;;;;;5133454;27;19914;-69
2023/08/18 03:38:23;;;;;;;;;;;25.30;99.90;;;;;;5133217;27;20406;-69
2023/08/18 03:40:49;;;;;;;;;;;25.20;99.90;;;;;;5134559;27;20275;-70
2023/08/18 03:43:15;;;;;;;;;;;25.20;99.90;;;;;;5135156;27;19903;-71
2023/08/18 03:45:41;;;;;;;;;;;25.20;99.90;;;;;;5134536;27;19911;-70
2023/08/18 03:48:07;;;;;;;;;;;25.20;99.90;;;;;;5134663;27;19916;-70
2023/08/18 03:50:33;;;;;;;;;;;25.20;99.90;;;;;;5135011;27;20244;-70
2023/08/18 03:53:00;;;;;;;;;;;25.30;99.90;;;;;;5134415;27;19911;-70
2023/08/18 03:55:25;;;;;;;;;;;25.20;99.90;;;;;;5135002;27;19954;-70
2023/08/18 03:57:51;;;;;;;;;;;25.20;99.90;;;;;;5134603;27;20311;-70
2023/08/18 04:00:20;;;;;;;;;;;25.30;99.90;;;;;;5134679;27;19914;-70
2023/08/18 04:02:46;;;;;;;;;;;25.20;99.90;;;;;;5134903;27;19903;-70
2023/08/18 04:05:12;;;;;;;;;;;25.20;99.90;;;;;;5134583;27;20355;-70
2023/08/18 04:07:38;;;;;;;;;;;25.10;99.90;;;;;;5134330;27;19914;-70
2023/08/18 04:10:04;;;;;;;;;;;25.00;99.90;;;;;;5132874;27;19908;-70
2023/08/18 04:12:30;;;;;;;;;;;25.00;99.90;;;;;;5134718;27;20263;-70
2023/08/18 04:14:55;;;;;;;;;;;24.90;99.90;;;;;;5134316;27;19998;-70
2023/08/18 04:17:21;;;;;;;;;;;24.90;99.90;;;;;;5134157;27;19903;-70
2023/08/18 04:19:47;;;;;;;;;;;24.90;99.90;;;;;;5134041;27;19907;-70
2023/08/18 04:22:13;;;;;;;;;;;25.00;99.90;;;;;;5133906;28;19903;-70
2023/08/18 04:24:39;;;;;;;;;;;25.00;99.90;;;;;;5134203;27;20381;-70
2023/08/18 04:27:04;;;;;;;;;;;25.10;99.90;;;;;;5133943;28;19903;-70
2023/08/18 04:29:30;;;;;;;;;;;25.20;99.90;;;;;;5134028;28;20271;-70
2023/08/18 04:31:56;;;;;;;;;;;25.30;99.90;;;;;;5134614;27;19903;-69
2023/08/18 04:34:23;;;;;;;;;;;25.30;99.90;;;;;;5133978;27;19910;-70
2023/08/18 04:36:48;;;;;;;;;;;25.30;99.90;;;;;;5134010;27;19904;-70
2023/08/18 04:39:15;;;;;;;;;;;25.30;99.90;;;;;;5133665;27;19915;-70
2023/08/18 04:41:41;;;;;;;;;;;25.30;99.90;;;;;;5138320;27;20350;-70
2023/08/18 04:44:06;;;;;;;;;;;25.30;99.90;;;;;;5138129;27;19904;-70
2023/08/18 04:46:33;;;;;;;;;;;25.20;99.90;;;;;;5153905;27;19908;-70
2023/08/18 04:48:58;;;;;;;;;;;25.20;99.90;;;;;;5137930;27;19963;-69
2023/08/18 04:51:24;;;;;;;;;;;25.10;99.90;;;;;;5138468;27;19903;-69
2023/08/18 04:53:50;;;;;;;;;;;25.10;99.90;;;;;;5137698;27;20273;-69
2023/08/18 04:56:16;;;;;;;;;;;25.00;99.90;;;;;;5136474;27;19953;-71
2023/08/18 04:58:42;;;;;;;;;;;25.10;99.90;;;;;;5137884;27;19956;-70
2023/08/18 05:01:08;;;;;;;;;;;25.20;99.90;;;;;;5136486;27;19911;-70
2023/08/18 05:03:34;;;;;;;;;;;25.20;99.90;;;;;;5136461;27;19952;-71
2023/08/18 05:06:02;;;;;;;;;;;25.20;99.90;;;;;;5136335;27;19994;-70
2023/08/18 05:08:29;;;;;;;;;;;25.20;99.90;;;;;;5136152;27;19950;-70
2023/08/18 05:11:02;;;;;;;;;;;25.20;99.90;;;;;;5137623;27;19903;-69
2023/08/18 05:13:28;;;;;;;;;;;25.10;99.90;;;;;;5136304;27;19903;-70
2023/08/18 05:15:54;;;;;;;;;;;25.00;99.90;;;;;;5137928;27;19904;-70
2023/08/18 05:18:21;;;;;;;;;;;25.20;99.90;;;;;;5135986;27;19910;-72
2023/08/18 05:20:47;;;;;;;;;;;26.10;99.90;;;;;;5137454;27;19903;-70
2023/08/18 05:23:16;;;;;;;;;;;27.30;99.90;;;;;;5136936;27;20371;-70
2023/08/18 05:25:45;;;;;;;;;;;28.30;99.90;;;;;;5137335;27;19904;-71
2023/08/18 05:28:12;;;;;;;;;;;29.60;99.90;;;;;;5136685;27;19907;-71
2023/08/18 05:30:38;;;;;;;;;;;30.30;99.90;;;;;;5137620;27;19963;-70
2023/08/18 05:33:04;;;;;;;;;;;30.60;99.90;;;;;;5137103;27;19904;-70
2023/08/18 05:35:31;;;;;;;;;;;30.60;99.90;;;;;;5136804;27;19903;-70
2023/08/18 05:37:57;;;;;;;;;;;30.50;99.90;;;;;;5136771;27;19988;-70
2023/08/18 05:40:23;;;;;;;;;;;30.60;99.90;;;;;;5135019;27;20371;-70
2023/08/18 05:42:49;;;;;;;;;;;30.40;99.90;;;;;;5136570;27;19904;-71
2023/08/18 05:45:14;;;;;;;;;;;30.90;99.90;;;;;;5136850;27;19981;-70
2023/08/18 05:47:40;;;;;;;;;;;31.90;99.90;;;;;;5136203;27;19994;-70
2023/08/18 05:50:08;;;;;;;;;;;32.00;99.90;;;;;;5136824;27;19904;-70
2023/08/18 05:52:33;;;;;;;;;;;31.50;99.90;;;;;;5135542;27;19990;-70
2023/08/18 05:54:59;;;;;;;;;;;31.60;99.90;;;;;;5136247;27;20029;-70
2023/08/18 05:57:25;;;;;;;;;;;32.10;99.90;;;;;;5136652;27;19998;-70
2023/08/18 05:59:51;;;;;;;;;;;32.00;99.90;;;;;;5136472;27;19956;-70
2023/08/18 06:02:17;;;;;;;;;;;31.50;99.90;;;;;;5134737;27;19903;-70
2023/08/18 06:04:43;;;;;;;;;;;32.00;99.90;;;;;;5136219;27;19911;-70
2023/08/18 06:07:10;;;;;;;;;;;32.90;99.90;;;;;;5134686;27;20003;-71
2023/08/18 06:09:36;;;;;;;;;;;34.30;99.90;;;;;;5136518;27;19919;-72
2023/08/18 06:12:03;;;;;;;;;;;35.40;99.90;;;;;;5136055;27;19904;-70
2023/08/18 06:14:29;;;;;;;;;;;34.00;99.90;;;;;;5134516;27;19979;-71
2023/08/18 06:16:54;;;;;;;;;;;33.60;99.90;;;;;;5135900;27;19910;-70
2023/08/18 06:19:20;;;;;;;;;;;33.50;99.90;;;;;;5134530;27;19979;-70
2023/08/18 06:21:46;;;;;;;;;;;32.90;99.90;;;;;;5136232;27;20415;-70
2023/08/18 06:24:12;;;;;;;;;;;33.50;99.90;;;;;;5135620;27;19903;-71
2023/08/18 06:26:38;;;;;;;;;;;34.00;99.90;;;;;;5135867;27;19907;-71
2023/08/18 06:29:03;;;;;;;;;;;34.70;99.90;;;;;;5134431;27;19950;-71
2023/08/18 06:31:29;;;;;;;;;;;35.80;99.40;;;;;;5135758;27;20389;-71
2023/08/18 06:33:55;;;;;;;;;;;35.50;99.40;;;;;;5135775;27;19904;-71
2023/08/18 06:36:22;;;;;;;;;;;36.60;98.60;;;;;;5135851;27;19947;-71
2023/08/18 06:38:47;;;;;;;;;;;37.10;97.50;;;;;;5133903;27;20366;-71
2023/08/18 06:41:13;;;;;;;;;;;38.50;96.40;;;;;;5135335;27;19915;-71
2023/08/18 06:43:39;;;;;;;;;;;39.40;95.10;;;;;;5135558;27;19910;-71
2023/08/18 06:46:05;;;;;;;;;;;40.80;94.10;;;;;;5134106;27;19933;-72
2023/08/18 06:48:31;;;;;;;;;;;40.90;92.60;;;;;;5134065;27;19911;-72
2023/08/18 06:50:57;;;;;;;;;;;40.50;92.30;;;;;;5135511;27;20006;-72
2023/08/18 06:53:23;;;;;;;;;;;40.20;92.10;;;;;;5135168;27;20019;-72
2023/08/18 06:55:49;;;;;;;;;;;40.90;91.70;;;;;;5135324;27;19995;-72
2023/08/18 06:58:15;;;;;;;;;;;41.80;90.90;;;;;;5135430;27;19951;-71
2023/08/18 07:00:41;;;;;;;;;;;42.60;90.00;;;;;;5133804;27;19957;-71
2023/08/18 07:03:07;;;;;;;;;;;43.20;88.60;;;;;;5134641;27;20185;-72
2023/08/18 07:05:33;;;;;;;;;;;42.40;87.50;;;;;;5133591;27;20363;-73
2023/08/18 07:07:59;;;;;;;;;;;42.80;87.90;;;;;;5134722;27;20044;-72
2023/08/18 07:10:26;;;;;;;;;;;43.20;86.10;;;;;;5134980;27;19952;-71
2023/08/18 07:12:51;;;;;;;;;;;43.90;84.40;;;;;;5133923;27;20225;-72
2023/08/18 07:15:17;;;;;;;;;;;43.60;83.20;;;;;;5135327;27;20352;-72
2023/08/18 07:17:43;;;;;;;;;;;42.90;82.50;;;;;;5134995;27;19910;-72
2023/08/18 07:20:10;;;;;;;;;;;40.40;85.60;;;;;;5134993;27;19907;-71
2023/08/18 07:22:36;;;;;;;;;;;39.80;86.10;;;;;;5133161;27;19907;-72
2023/08/18 07:25:04;;;;;;;;;;;38.50;88.20;;;;;;5133184;27;19903;-71
2023/08/18 07:27:30;;;;;;;;;;;38.30;88.40;;;;;;5133098;27;20240;-72
2023/08/18 07:29:55;;;;;;;;;;;38.70;90.00;;;;;;5133258;27;19918;-72
2023/08/18 07:32:21;;;;;;;;;;;39.60;88.00;;;;;;5134785;27;19907;-72
2023/08/18 07:34:57;;;;;;;;;;;39.70;88.30;;;;;;5090815;27;19920;-71
2023/08/18 07:37:23;;;;;;;;;;;39.30;88.90;;;;;;5090574;28;20291;-70
2023/08/18 07:39:49;;;;;;;;;;;39.30;89.70;;;;;;5090136;28;20276;-71
2023/08/18 07:42:15;;;;;;;;;;;39.30;89.60;;;;;;5090741;28;19966;-71
2023/08/18 07:44:41;;;;;;;;;;;39.10;90.20;;;;;;5090464;28;19909;-71
2023/08/18 07:47:07;;;;;;;;;;;39.30;90.10;;;;;;5088719;28;19973;-71
2023/08/18 07:49:32;;;;;;;;;;;38.30;90.70;;;;;;5090590;28;19909;-70
2023/08/18 07:51:58;;;;;;;;;;;38.20;90.80;;;;;;5092738;28;19960;-70
2023/08/18 07:54:24;;;;;;;;;;;37.90;91.10;;;;;;5110022;28;20387;-70
2023/08/18 07:56:50;;;;;;;;;;;37.90;91.20;;;;;;5108963;28;19908;-71
2023/08/18 07:59:16;;;;;;;;;;;37.60;91.40;;;;;;5108710;28;19912;-71
2023/08/18 08:01:42;;;;;;;;;;;37.80;91.60;;;;;;5110129;28;19964;-71
2023/08/18 08:04:08;;;;;;;;;;;37.90;91.20;;;;;;5110174;28;19915;-71
2023/08/18 08:06:33;;;;;;;;;;;37.80;91.30;;;;;;5110184;28;19908;-71
2023/08/18 08:08:59;;;;;;;;;;;38.10;90.80;;;;;;5110051;28;19927;-71
2023/08/18 08:11:25;;;;;;;;;;;37.30;91.10;;;;;;5110353;28;19932;-70
2023/08/18 08:13:51;;;;;;;;;;;36.90;91.40;;;;;;5110047;28;19920;-70
2023/08/18 08:16:17;;;;;;;;;;;36.80;92.30;;;;;;5109609;28;20006;-70
2023/08/18 08:18:43;;;;;;;;;;;37.20;92.00;;;;;;5110234;28;19908;-70
2023/08/18 08:21:09;;;;;;;;;;;36.80;92.10;;;;;;5108443;28;19927;-71
2023/08/18 08:23:35;;;;;;;;;;;36.60;92.50;;;;;;5109432;28;19908;-71
2023/08/18 08:26:01;;;;;;;;;;;36.40;92.50;;;;;;5110489;28;19907;-71
2023/08/18 08:28:26;;;;;;;;;;;36.40;92.60;;;;;;5109097;28;19920;-70
2023/08/18 08:30:52;;;;;;;;;;;36.40;92.40;;;;;;5109703;28;19908;-70
2023/08/18 08:33:18;;;;;;;;;;;36.00;93.00;;;;;;5116557;28;19920;-70
2023/08/18 08:35:44;;;;;;;;;;;36.20;92.90;;;;;;5130056;28;19927;-71
2023/08/18 08:38:10;;;;;;;;;;;36.00;93.20;;;;;;5129845;28;19930;-71
2023/08/18 08:40:35;;;;;;;;;;;35.40;93.10;;;;;;5130350;28;19908;-71
2023/08/18 08:43:01;;;;;;;;;;;35.30;93.40;;;;;;5129860;28;19908;-71
2023/08/18 08:45:27;;;;;;;;;;;35.60;92.40;;;;;;5121156;28;20223;-70
2023/08/18 08:47:55;;;;;;;;;;;35.50;92.50;;;;;;5115869;28;19914;-71
2023/08/18 08:50:21;;;;;;;;;;;35.30;93.10;;;;;;5116039;28;19962;-70
2023/08/18 08:52:49;;;;;;;;;;;35.50;93.40;;;;;;5115668;28;19911;-71
2023/08/18 08:55:16;;;;;;;;;;;35.30;92.90;;;;;;5097489;28;19908;-71
2023/08/18 08:57:42;;;;;;;;;;;35.50;93.00;;;;;;5116294;28;19907;-72
2023/08/18 09:00:09;;;;;;;;;;;35.90;92.60;;;;;;5115819;28;20436;-71
2023/08/18 09:02:35;;;;;;;;;;;35.90;92.90;;;;;;5116025;28;19912;-71
2023/08/18 09:05:01;;;;;;;;;;;35.70;93.10;;;;;;5115770;28;20363;-71
2023/08/18 09:07:28;;;;;;;;;;;35.70;93.60;;;;;;5115555;28;19999;-71
2023/08/18 09:09:54;;;;;;;;;;;35.70;93.90;;;;;;5115687;28;19915;-71
2023/08/18 09:12:25;;;;;;;;;;;35.40;94.20;;;;;;5115775;28;19908;-71
2023/08/18 09:14:53;;;;;;;;;;;35.40;93.50;;;;;;5115666;28;19960;-71
2023/08/18 09:17:19;;;;;;;;;;;35.20;93.90;;;;;;5115542;28;19908;-71
2023/08/18 09:19:47;;;;;;;;;;;35.50;93.90;;;;;;5115470;28;20348;-71
2023/08/18 09:22:13;;;;;;;;;;;35.40;93.90;;;;;;5115470;28;19951;-71
2023/08/18 09:24:39;;;;;;;;;;;35.00;94.60;;;;;;5096773;28;19992;-71
2023/08/18 09:27:08;;;;;;;;;;;34.80;94.50;;;;;;5115837;28;20057;-71
2023/08/18 09:29:34;;;;;;;;;;;34.70;94.50;;;;;;5115416;28;19990;-71
2023/08/18 09:32:00;;;;;;;;;;;34.60;94.90;;;;;;5096855;28;19908;-71
2023/08/18 09:34:26;;;;;;;;;;;35.00;94.50;;;;;;5114950;28;19927;-71
2023/08/18 09:36:52;;;;;;;;;;;35.30;93.60;;;;;;5115259;28;19908;-71
2023/08/18 09:39:19;;;;;;;;;;;35.10;93.50;;;;;;5096748;28;19939;-71
2023/08/18 09:41:52;;;;;;;;;;;35.00;93.90;;;;;;5115438;28;19976;-71
2023/08/18 09:44:18;;;;;;;;;;;35.10;93.60;;;;;;5115045;28;20381;-72
2023/08/18 09:46:47;;;;;;;;;;;35.30;93.90;;;;;;5115483;28;19911;-72
2023/08/18 09:49:20;;;;;;;;;;;35.20;94.20;;;;;;5115263;28;19931;-71
2023/08/18 09:51:48;;;;;;;;;;;35.00;94.10;;;;;;5114754;28;19907;-71
2023/08/18 09:54:17;;;;;;;;;;;34.50;94.70;;;;;;5116052;28;20367;-71
2023/08/18 09:56:43;;;;;;;;;;;34.60;94.50;;;;;;5117534;28;19908;-70
2023/08/18 09:59:14;;;;;;;;;;;34.80;94.50;;;;;;5114985;28;19908;-72
2023/08/18 10:01:41;;;;;;;;;;;34.90;94.20;;;;;;5115282;28;19965;-71
2023/08/18 10:04:07;;;;;;;;;;;35.00;94.50;;;;;;5114663;28;19959;-71
2023/08/18 10:06:36;;;;;;;;;;;34.40;94.90;;;;;;5114560;28;20441;-71
2023/08/18 10:09:02;;;;;;;;;;;34.20;95.30;;;;;;5114451;28;19908;-71
2023/08/18 10:11:27;;;;;;;;;;;34.00;95.60;;;;;;5096294;28;19908;-71
2023/08/18 10:13:53;;;;;;;;;;;34.00;95.90;;;;;;5096059;28;19916;-71
2023/08/18 10:16:19;;;;;;;;;;;34.10;95.80;;;;;;5114373;28;19914;-71
2023/08/18 10:18:53;;;;;;;;;;;34.10;96.00;;;;;;5114490;28;19927;-71
2023/08/18 10:21:19;;;;;;;;;;;33.90;96.50;;;;;;5114270;28;19908;-71
2023/08/18 10:23:47;;;;;;;;;;;33.80;97.10;;;;;;5114082;28;19908;-72
2023/08/18 10:26:14;;;;;;;;;;;33.80;97.40;;;;;;5114539;28;19912;-72
2023/08/18 10:28:40;;;;;;;;;;;33.70;97.50;;;;;;5114890;28;19947;-71
2023/08/18 10:31:08;;;;;;;;;;;33.70;97.50;;;;;;5114146;28;19912;-72
2023/08/18 10:33:36;;;;;;;;;;;33.80;98.30;;;;;;5113742;28;20427;-71
2023/08/18 10:36:03;;;;;;;;;;;34.00;98.10;;;;;;5114485;28;19907;-71
2023/08/18 10:38:29;;;;;;;;;;;34.00;97.90;;;;;;5113705;28;20006;-71
2023/08/18 10:40:55;;;;;;;;;;;34.10;98.40;;;;;;5114068;28;19977;-71
2023/08/18 10:43:24;;;;;;;;;;;34.00;98.70;;;;;;5113787;28;19914;-71
2023/08/18 10:45:50;;;;;;;;;;;33.80;99.20;;;;;;5113827;28;19909;-71
2023/08/18 10:48:16;;;;;;;;;;;33.60;99.90;;;;;;5113636;28;19922;-71
2023/08/18 10:50:44;;;;;;;;;;;33.60;99.90;;;;;;5113690;28;19908;-71
2023/08/18 10:53:12;;;;;;;;;;;33.40;99.90;;;;;;5113227;28;19916;-71
2023/08/18 10:55:39;;;;;;;;;;;33.50;99.90;;;;;;5113422;28;20371;-71
2023/08/18 10:58:05;;;;;;;;;;;33.40;99.90;;;;;;5114064;28;20325;-71
2023/08/18 11:00:35;;;;;;;;;;;33.50;99.90;;;;;;5113738;28;19907;-72
2023/08/18 11:03:00;;;;;;;;;;;33.70;99.90;;;;;;5113568;28;19943;-71
2023/08/18 11:05:29;;;;;;;;;;;33.70;99.90;;;;;;5114022;28;19914;-71
2023/08/18 11:07:56;;;;;;;;;;;33.60;99.90;;;;;;5113183;28;20376;-71
2023/08/18 11:10:23;;;;;;;;;;;33.50;99.90;;;;;;5113830;28;19908;-71
2023/08/18 11:12:49;;;;;;;;;;;33.50;99.90;;;;;;5113381;28;19953;-71
2023/08/18 11:15:18;;;;;;;;;;;33.20;99.90;;;;;;5113082;28;19908;-71
2023/08/18 11:17:44;;;;;;;;;;;33.30;99.90;;;;;;5095105;28;19911;-71
2023/08/18 11:20:13;;;;;;;;;;;33.40;99.90;;;;;;5114138;28;19908;-71
2023/08/18 11:22:42;;;;;;;;;;;33.20;99.90;;;;;;5113411;28;19966;-71
2023/08/18 11:25:11;;;;;;;;;;;33.30;99.90;;;;;;5114289;28;19957;-71
2023/08/18 11:27:40;;;;;;;;;;;33.20;99.90;;;;;;5113154;28;19911;-71
2023/08/18 11:30:07;;;;;;;;;;;33.40;99.90;;;;;;5113130;28;19908;-70
2023/08/18 11:32:32;;;;;;;;;;;33.50;99.90;;;;;;5113252;28;19961;-71
2023/08/18 11:34:59;;;;;;;;;;;33.60;99.90;;;;;;5094846;28;19920;-72
2023/08/18 11:37:28;;;;;;;;;;;33.60;99.90;;;;;;5113505;28;20004;-71
2023/08/18 11:39:54;;;;;;;;;;;33.60;99.90;;;;;;5113100;28;19962;-71
2023/08/18 11:42:20;;;;;;;;;;;33.70;99.90;;;;;;5113013;28;20050;-71
2023/08/18 11:44:54;;;;;;;;;;;33.80;99.90;;;;;;5113275;28;19953;-71
2023/08/18 11:47:21;;;;;;;;;;;33.80;99.90;;;;;;5094795;28;19942;-71
2023/08/18 11:49:47;;;;;;;;;;;33.60;99.90;;;;;;5113036;28;19908;-71
2023/08/18 11:52:13;;;;;;;;;;;33.50;99.90;;;;;;5113017;28;20290;-71
2023/08/18 11:54:41;;;;;;;;;;;33.40;99.90;;;;;;5112722;28;19999;-71
2023/08/18 11:57:08;;;;;;;;;;;33.20;99.90;;;;;;5112976;28;19916;-72
2023/08/18 11:59:34;;;;;;;;;;;33.50;99.90;;;;;;5113050;28;20346;-72
2023/08/18 12:02:01;;;;;;;;;;;33.50;99.90;;;;;;5112855;28;19908;-72
2023/08/18 12:04:30;;;;;;;;;;;33.50;99.90;;;;;;5113084;28;20275;-72
2023/08/18 12:06:56;;;;;;;;;;;33.50;99.90;;;;;;5112972;28;19946;-72
2023/08/18 12:09:23;;;;;;;;;;;33.80;99.90;;;;;;5112919;28;19915;-72
2023/08/18 12:11:49;;;;;;;;;;;33.70;99.90;;;;;;5112890;28;20284;-72
2023/08/18 12:14:16;;;;;;;;;;;33.80;99.90;;;;;;5112920;28;19967;-72
2023/08/18 12:16:42;;;;;;;;;;;33.70;99.90;;;;;;5113198;28;19908;-72
2023/08/18 12:19:09;;;;;;;;;;;33.90;99.90;;;;;;5113401;28;19915;-72
2023/08/18 12:21:39;;;;;;;;;;;33.80;99.90;;;;;;5116315;28;19908;-72
2023/08/18 12:24:05;;;;;;;;;;;33.70;99.90;;;;;;5116766;28;19914;-72
2023/08/18 12:26:34;;;;;;;;;;;33.50;99.90;;;;;;5116564;28;19916;-72
2023/08/18 12:29:03;;;;;;;;;;;33.70;99.90;;;;;;5116403;28;19908;-72
2023/08/18 12:31:32;;;;;;;;;;;33.70;99.90;;;;;;5116589;28;20339;-72
2023/08/18 12:34:01;;;;;;;;;;;33.80;99.90;;;;;;5116219;28;19920;-72
2023/08/18 12:36:27;;;;;;;;;;;33.50;99.90;;;;;;5116532;28;19914;-73
2023/08/18 12:38:52;;;;;;;;;;;33.80;99.90;;;;;;5116438;28;19908;-73
2023/08/18 12:41:18;;;;;;;;;;;33.80;99.90;;;;;;5116379;28;20006;-72
2023/08/18 12:43:44;;;;;;;;;;;33.70;99.90;;;;;;5097833;28;19916;-72
2023/08/18 12:46:10;;;;;;;;;;;33.70;99.90;;;;;;5116440;28;20373;-72
2023/08/18 12:48:36;;;;;;;;;;;33.70;99.90;;;;;;5116471;28;19937;-72
2023/08/18 12:51:02;;;;;;;;;;;33.70;99.90;;;;;;5116274;28;19914;-73
2023/08/18 12:53:28;;;;;;;;;;;33.40;99.90;;;;;;5117746;28;19915;-72
2023/08/18 12:55:54;;;;;;;;;;;33.50;99.90;;;;;;5117189;28;19907;-72
2023/08/18 12:58:20;;;;;;;;;;;33.60;99.90;;;;;;5116284;28;19907;-72
2023/08/18 13:00:45;;;;;;;;;;;33.60;99.90;;;;;;5116046;28;19908;-72
2023/08/18 13:03:11;;;;;;;;;;;33.50;99.90;;;;;;5116245;28;19907;-72
2023/08/18 13:05:37;;;;;;;;;;;33.50;99.90;;;;;;5116856;28;19916;-72
2023/08/18 13:08:03;;;;;;;;;;;33.60;99.90;;;;;;5115782;28;19908;-72
2023/08/18 13:10:29;;;;;;;;;;;33.80;99.90;;;;;;5116070;28;19998;-72
2023/08/18 13:12:55;;;;;;;;;;;33.60;99.90;;;;;;5115858;28;19999;-72
2023/08/18 13:15:21;;;;;;;;;;;33.80;99.90;;;;;;5116575;28;19912;-72
2023/08/18 13:17:47;;;;;;;;;;;33.90;99.90;;;;;;5116090;28;19939;-72
2023/08/18 13:20:12;;;;;;;;;;;34.00;99.90;;;;;;5116235;28;19908;-72
2023/08/18 13:22:40;;;;;;;;;;;33.60;99.90;;;;;;5116048;28;19908;-72
2023/08/18 13:25:12;;;;;;;;;;;33.60;99.90;;;;;;5115775;28;19943;-72
2023/08/18 13:27:39;;;;;;;;;;;33.50;99.90;;;;;;5115796;28;19912;-72
2023/08/18 13:30:07;;;;;;;;;;;33.60;99.90;;;;;;5115795;28;19919;-72
2023/08/18 13:32:33;;;;;;;;;;;33.60;99.90;;;;;;5116094;28;20256;-72
2023/08/18 13:34:59;;;;;;;;;;;33.30;99.90;;;;;;5115629;28;19923;-72
2023/08/18 13:37:25;;;;;;;;;;;33.50;99.90;;;;;;5115654;28;19914;-72
2023/08/18 13:39:51;;;;;;;;;;;33.20;99.90;;;;;;5115333;28;20432;-72
2023/08/18 13:42:17;;;;;;;;;;;32.90;99.90;;;;;;5116046;28;20084;-72
2023/08/18 13:44:43;;;;;;;;;;;32.90;99.90;;;;;;5115355;28;19908;-72
2023/08/18 13:47:09;;;;;;;;;;;33.40;99.90;;;;;;5115364;28;19960;-72
2023/08/18 13:49:35;;;;;;;;;;;33.40;99.90;;;;;;5115395;28;19983;-72
2023/08/18 13:52:01;;;;;;;;;;;33.20;99.90;;;;;;5115282;28;19912;-72
2023/08/18 13:54:27;;;;;;;;;;;33.20;99.90;;;;;;5096779;28;19919;-72
2023/08/18 13:56:53;;;;;;;;;;;33.50;99.90;;;;;;5115735;28;19908;-72
2023/08/18 13:59:19;;;;;;;;;;;33.40;99.90;;;;;;5115107;28;19908;-72
2023/08/18 14:01:44;;;;;;;;;;;33.30;99.90;;;;;;5115105;28;20362;-72
2023/08/18 14:04:10;;;;;;;;;;;33.40;99.90;;;;;;5115250;28;20003;-71
2023/08/18 14:06:36;;;;;;;;;;;33.50;99.50;;;;;;5115076;28;20367;-73
2023/08/18 14:09:03;;;;;;;;;;;33.50;99.00;;;;;;5114819;28;20002;-72
2023/08/18 14:11:29;;;;;;;;;;;33.50;98.80;;;;;;5114925;28;19974;-72